sensor_id;sensor_type;location;lat;lon;timestamp;temperature;humidity
64689;DHT22;62504;46.070;14.492;2023-02-28T00:01:07;2.00;99.90
64689;DHT22;62504;46.070;14.492;2023-02-28T00:03:32;2.00;99.90
64689;DHT22;62504;46.070;14.492;2023-02-28T00:06:01;2.00;99.90
64689;DHT22;62504;46.070;14.492;2023-02-28T00:08:27;2.20;99.90
64689;DHT22;62504;46.070;14.492;2023-02-28T00:10:53;2.10;99.90
64689;DHT22;62504;46.070;14.492;2023-02-28T00:13:19;2.10;99.90
64689;DHT22;62504;46.070;14.492;2023-02-28T00:15:44;2.10;99.90
64689;DHT22;62504;46.070;14.492;2023-02-28T00:18:11;2.10;99.90
64689;DHT22;62504;46.070;14.492;2023-02-28T00:20:37;2.10;99.90
64689;DHT22;62504;46.070;14.492;2023-02-28T00:23:03;2.10;99.90
64689;DHT22;62504;46.070;14.492;2023-02-28T00:25:28;2.20;99.90
64689;DHT22;62504;46.070;14.492;2023-02-28T00:27:54;2.40;99.90
64689;DHT22;62504;46.070;14.492;2023-02-28T00:30:23;2.20;99.90
64689;DHT22;62504;46.070;14.492;2023-02-28T00:32:50;2.10;99.90
64689;DHT22;62504;46.070;14.492;2023-02-28T00:35:16;2.00;99.90
64689;DHT22;62504;46.070;14.492;2023-02-28T00:37:43;2.00;99.90
64689;DHT22;62504;46.070;14.492;2023-02-28T00:40:09;2.00;99.90
64689;DHT22;62504;46.070;14.492;2023-02-28T00:42:36;2.00;99.90
64689;DHT22;62504;46.070;14.492;2023-02-28T00:45:03;2.00;99.90
64689;DHT22;62504;46.070;14.492;2023-02-28T00:47:30;2.20;99.90
64689;DHT22;62504;46.070;14.492;2023-02-28T00:49:56;2.10;99.90
64689;DHT22;62504;46.070;14.492;2023-02-28T00:52:21;2.10;99.90
64689;DHT22;62504;46.070;14.492;2023-02-28T00:54:47;2.20;99.90
64689;DHT22;62504;46.070;14.492;2023-02-28T00:57:13;2.20;99.90
64689;DHT22;62504;46.070;14.492;2023-02-28T00:59:38;2.10;99.90
64689;DHT22;62504;46.070;14.492;2023-02-28T01:02:04;2.20;99.90
64689;DHT22;62504;46.070;14.492;2023-02-28T01:04:30;2.30;99.90
64689;DHT22;62504;46.070;14.492;2023-02-28T01:06:55;2.20;99.90
64689;DHT22;62504;46.070;14.492;2023-02-28T01:09:21;2.30;99.90
64689;DHT22;62504;46.070;14.492;2023-02-28T01:11:47;2.30;99.90
64689;DHT22;62504;46.070;14.492;2023-02-28T01:14:14;2.00;99.90
64689;DHT22;62504;46.070;14.492;2023-02-28T01:16:40;2.30;99.90
64689;DHT22;62504;46.070;14.492;2023-02-28T01:19:06;2.10;99.90
64689;DHT22;62504;46.070;14.492;2023-02-28T01:21:32;2.20;99.90
64689;DHT22;62504;46.070;14.492;2023-02-28T01:23:58;2.00;99.90
64689;DHT22;62504;46.070;14.492;2023-02-28T01:26:24;2.20;99.90
64689;DHT22;62504;46.070;14.492;2023-02-28T01:28:51;2.00;99.90
64689;DHT22;62504;46.070;14.492;2023-02-28T01:31:18;2.10;99.90
64689;DHT22;62504;46.070;14.492;2023-02-28T01:33:44;2.00;99.90
64689;DHT22;62504;46.070;14.492;2023-02-28T01:36:22;1.90;99.90
64689;DHT22;62504;46.070;14.492;2023-02-28T01:38:49;2.00;99.90
64689;DHT22;62504;46.070;14.492;2023-02-28T01:41:21;2.10;99.90
64689;DHT22;62504;46.070;14.492;2023-02-28T01:46:13;1.90;99.90
64689;DHT22;62504;46.070;14.492;2023-02-28T01:48:48;2.00;99.90
64689;DHT22;62504;46.070;14.492;2023-02-28T01:51:27;2.30;99.90
64689;DHT22;62504;46.070;14.492;2023-02-28T01:54:07;2.10;99.90
64689;DHT22;62504;46.070;14.492;2023-02-28T01:56:43;2.10;99.90
64689;DHT22;62504;46.070;14.492;2023-02-28T01:59:13;2.00;99.90
64689;DHT22;62504;46.070;14.492;2023-02-28T02:01:40;2.00;99.90
64689;DHT22;62504;46.070;14.492;2023-02-28T02:04:06;1.90;99.90
64689;DHT22;62504;46.070;14.492;2023-02-28T02:06:38;2.10;99.90
64689;DHT22;62504;46.070;14.492;2023-02-28T02:09:04;2.30;99.90
64689;DHT22;62504;46.070;14.492;2023-02-28T02:11:31;2.10;99.90
64689;DHT22;62504;46.070;14.492;2023-02-28T02:17:34;2.00;99.90
64689;DHT22;62504;46.070;14.492;2023-02-28T02:25:41;2.00;99.90
64689;DHT22;62504;46.070;14.492;2023-02-28T02:31:33;2.00;99.90
64689;DHT22;62504;46.070;14.492;2023-02-28T02:43:20;2.00;99.90
64689;DHT22;62504;46.070;14.492;2023-02-28T02:48:05;2.20;99.90
64689;DHT22;62504;46.070;14.492;2023-02-28T02:50:36;2.20;99.90
64689;DHT22;62504;46.070;14.492;2023-02-28T02:53:05;2.10;99.90
64689;DHT22;62504;46.070;14.492;2023-02-28T02:55:34;2.30;99.90
64689;DHT22;62504;46.070;14.492;2023-02-28T02:58:06;2.20;99.90
64689;DHT22;62504;46.070;14.492;2023-02-28T03:00:37;2.30;99.90
64689;DHT22;62504;46.070;14.492;2023-02-28T03:03:05;2.50;99.90
64689;DHT22;62504;46.070;14.492;2023-02-28T03:05:39;2.20;99.90
64689;DHT22;62504;46.070;14.492;2023-02-28T03:08:07;2.20;99.90
64689;DHT22;62504;46.070;14.492;2023-02-28T03:10:39;2.20;99.90
64689;DHT22;62504;46.070;14.492;2023-02-28T03:18:36;2.30;99.90
64689;DHT22;62504;46.070;14.492;2023-02-28T03:26:54;2.20;99.90
64689;DHT22;62504;46.070;14.492;2023-02-28T03:29:28;2.30;99.90
64689;DHT22;62504;46.070;14.492;2023-02-28T03:32:10;2.30;99.90
64689;DHT22;62504;46.070;14.492;2023-02-28T03:34:43;2.20;99.90
64689;DHT22;62504;46.070;14.492;2023-02-28T03:37:18;2.40;99.90
64689;DHT22;62504;46.070;14.492;2023-02-28T03:40:02;2.20;99.90
64689;DHT22;62504;46.070;14.492;2023-02-28T03:42:35;2.00;99.90
64689;DHT22;62504;46.070;14.492;2023-02-28T03:48:02;2.10;99.90
64689;DHT22;62504;46.070;14.492;2023-02-28T03:50:39;2.20;99.90
64689;DHT22;62504;46.070;14.492;2023-02-28T03:53:29;2.30;99.90
64689;DHT22;62504;46.070;14.492;2023-02-28T03:56:21;2.40;99.90
64689;DHT22;62504;46.070;14.492;2023-02-28T03:58:54;2.10;99.90
64689;DHT22;62504;46.070;14.492;2023-02-28T04:01:45;2.30;99.90
64689;DHT22;62504;46.070;14.492;2023-02-28T04:04:11;2.10;99.90
64689;DHT22;62504;46.070;14.492;2023-02-28T04:06:38;2.20;99.90
64689;DHT22;62504;46.070;14.492;2023-02-28T04:09:05;2.10;99.90
64689;DHT22;62504;46.070;14.492;2023-02-28T04:11:41;2.40;99.90
64689;DHT22;62504;46.070;14.492;2023-02-28T04:14:08;2.10;99.90
64689;DHT22;62504;46.070;14.492;2023-02-28T04:16:37;2.30;99.90
64689;DHT22;62504;46.070;14.492;2023-02-28T04:19:04;2.50;99.90
64689;DHT22;62504;46.070;14.492;2023-02-28T04:21:39;2.30;99.90
64689;DHT22;62504;46.070;14.492;2023-02-28T04:24:06;2.50;99.90
64689;DHT22;62504;46.070;14.492;2023-02-28T04:26:36;2.50;99.90
64689;DHT22;62504;46.070;14.492;2023-02-28T04:29:04;2.40;99.90
64689;DHT22;62504;46.070;14.492;2023-02-28T04:31:30;2.50;99.90
64689;DHT22;62504;46.070;14.492;2023-02-28T04:33:56;2.40;99.90
64689;DHT22;62504;46.070;14.492;2023-02-28T04:36:22;2.30;99.90
64689;DHT22;62504;46.070;14.492;2023-02-28T04:38:49;2.30;99.90
64689;DHT22;62504;46.070;14.492;2023-02-28T04:41:15;2.40;99.90
64689;DHT22;62504;46.070;14.492;2023-02-28T04:43:42;2.20;99.90
64689;DHT22;62504;46.070;14.492;2023-02-28T04:46:07;2.30;99.90
64689;DHT22;62504;46.070;14.492;2023-02-28T04:48:36;2.40;99.90
64689;DHT22;62504;46.070;14.492;2023-02-28T04:51:08;2.60;99.90
64689;DHT22;62504;46.070;14.492;2023-02-28T04:53:35;2.40;99.90
64689;DHT22;62504;46.070;14.492;2023-02-28T04:56:01;2.40;99.90
64689;DHT22;62504;46.070;14.492;2023-02-28T04:58:27;2.40;99.90
64689;DHT22;62504;46.070;14.492;2023-02-28T05:00:54;2.40;99.90
64689;DHT22;62504;46.070;14.492;2023-02-28T05:03:20;2.10;99.90
64689;DHT22;62504;46.070;14.492;2023-02-28T05:05:47;2.40;99.90
64689;DHT22;62504;46.070;14.492;2023-02-28T05:08:13;2.40;99.90
64689;DHT22;62504;46.070;14.492;2023-02-28T05:10:39;2.50;99.90
64689;DHT22;62504;46.070;14.492;2023-02-28T05:13:04;2.50;99.90
64689;DHT22;62504;46.070;14.492;2023-02-28T05:15:30;2.40;99.90
64689;DHT22;62504;46.070;14.492;2023-02-28T05:17:56;2.40;99.90
64689;DHT22;62504;46.070;14.492;2023-02-28T05:20:21;2.40;99.90
64689;DHT22;62504;46.070;14.492;2023-02-28T05:22:47;2.50;99.90
64689;DHT22;62504;46.070;14.492;2023-02-28T05:25:17;2.30;99.90
64689;DHT22;62504;46.070;14.492;2023-02-28T05:27:43;2.50;99.90
64689;DHT22;62504;46.070;14.492;2023-02-28T05:30:09;2.50;99.90
64689;DHT22;62504;46.070;14.492;2023-02-28T05:32:38;2.40;99.90
64689;DHT22;62504;46.070;14.492;2023-02-28T05:35:08;2.20;99.90
64689;DHT22;62504;46.070;14.492;2023-02-28T05:37:34;2.20;99.90
64689;DHT22;62504;46.070;14.492;2023-02-28T05:40:00;2.40;99.90
64689;DHT22;62504;46.070;14.492;2023-02-28T05:42:26;2.40;99.90
64689;DHT22;62504;46.070;14.492;2023-02-28T05:44:51;2.50;99.90
64689;DHT22;62504;46.070;14.492;2023-02-28T05:47:17;2.50;99.90
64689;DHT22;62504;46.070;14.492;2023-02-28T05:49:43;2.50;99.90
64689;DHT22;62504;46.070;14.492;2023-02-28T05:52:08;2.40;99.90
64689;DHT22;62504;46.070;14.492;2023-02-28T05:54:34;2.20;99.90
64689;DHT22;62504;46.070;14.492;2023-02-28T05:57:00;2.00;99.90
64689;DHT22;62504;46.070;14.492;2023-02-28T05:59:25;2.20;99.90
64689;DHT22;62504;46.070;14.492;2023-02-28T06:01:51;2.20;99.90
64689;DHT22;62504;46.070;14.492;2023-02-28T06:04:19;2.30;99.90
64689;DHT22;62504;46.070;14.492;2023-02-28T06:06:47;2.30;99.90
64689;DHT22;62504;46.070;14.492;2023-02-28T06:09:13;2.20;99.90
64689;DHT22;62504;46.070;14.492;2023-02-28T06:11:39;2.10;99.90
64689;DHT22;62504;46.070;14.492;2023-02-28T06:14:05;2.40;99.90
64689;DHT22;62504;46.070;14.492;2023-02-28T06:16:33;2.40;99.90
64689;DHT22;62504;46.070;14.492;2023-02-28T06:18:59;2.40;99.90
64689;DHT22;62504;46.070;14.492;2023-02-28T06:21:26;2.40;99.90
64689;DHT22;62504;46.070;14.492;2023-02-28T06:23:53;2.80;99.90
64689;DHT22;62504;46.070;14.492;2023-02-28T06:26:19;2.30;99.90
64689;DHT22;62504;46.070;14.492;2023-02-28T06:28:45;2.30;99.90
64689;DHT22;62504;46.070;14.492;2023-02-28T06:31:13;2.40;99.90
64689;DHT22;62504;46.070;14.492;2023-02-28T06:33:40;2.50;99.90
64689;DHT22;62504;46.070;14.492;2023-02-28T06:36:07;2.40;99.90
64689;DHT22;62504;46.070;14.492;2023-02-28T06:38:33;2.30;99.90
64689;DHT22;62504;46.070;14.492;2023-02-28T06:41:00;2.30;99.90
64689;DHT22;62504;46.070;14.492;2023-02-28T06:43:28;2.30;99.90
64689;DHT22;62504;46.070;14.492;2023-02-28T06:45:56;2.30;99.90
64689;DHT22;62504;46.070;14.492;2023-02-28T06:48:21;2.40;99.90
64689;DHT22;62504;46.070;14.492;2023-02-28T06:50:47;2.40;99.90
64689;DHT22;62504;46.070;14.492;2023-02-28T06:53:13;2.50;99.90
64689;DHT22;62504;46.070;14.492;2023-02-28T06:55:39;2.20;99.90
64689;DHT22;62504;46.070;14.492;2023-02-28T06:58:06;2.50;99.90
64689;DHT22;62504;46.070;14.492;2023-02-28T07:00:44;2.50;99.90
64689;DHT22;62504;46.070;14.492;2023-02-28T07:03:11;2.30;99.90
64689;DHT22;62504;46.070;14.492;2023-02-28T07:05:38;2.50;99.90
64689;DHT22;62504;46.070;14.492;2023-02-28T07:08:05;2.60;99.90
64689;DHT22;62504;46.070;14.492;2023-02-28T07:10:32;2.40;99.90
64689;DHT22;62504;46.070;14.492;2023-02-28T07:12:58;2.50;99.90
64689;DHT22;62504;46.070;14.492;2023-02-28T07:15:25;2.50;99.90
64689;DHT22;62504;46.070;14.492;2023-02-28T07:17:50;2.50;99.90
64689;DHT22;62504;46.070;14.492;2023-02-28T07:20:16;2.40;99.90
64689;DHT22;62504;46.070;14.492;2023-02-28T07:22:42;2.50;99.90
64689;DHT22;62504;46.070;14.492;2023-02-28T07:25:08;2.50;99.90
64689;DHT22;62504;46.070;14.492;2023-02-28T07:27:34;2.40;99.90
64689;DHT22;62504;46.070;14.492;2023-02-28T07:30:00;2.50;99.90
64689;DHT22;62504;46.070;14.492;2023-02-28T07:32:27;2.50;99.90
64689;DHT22;62504;46.070;14.492;2023-02-28T07:34:53;2.60;99.90
64689;DHT22;62504;46.070;14.492;2023-02-28T07:37:19;2.40;99.90
64689;DHT22;62504;46.070;14.492;2023-02-28T07:39:45;2.60;99.90
64689;DHT22;62504;46.070;14.492;2023-02-28T07:42:11;2.50;99.90
64689;DHT22;62504;46.070;14.492;2023-02-28T07:44:40;2.60;99.90
64689;DHT22;62504;46.070;14.492;2023-02-28T07:47:10;2.60;99.90
64689;DHT22;62504;46.070;14.492;2023-02-28T07:49:36;2.80;99.90
64689;DHT22;62504;46.070;14.492;2023-02-28T07:52:03;2.50;99.90
64689;DHT22;62504;46.070;14.492;2023-02-28T07:54:29;2.50;99.90
64689;DHT22;62504;46.070;14.492;2023-02-28T07:56:55;2.50;99.90
64689;DHT22;62504;46.070;14.492;2023-02-28T07:59:21;2.50;99.90
64689;DHT22;62504;46.070;14.492;2023-02-28T08:01:47;2.50;99.90
64689;DHT22;62504;46.070;14.492;2023-02-28T08:04:14;2.50;99.90
64689;DHT22;62504;46.070;14.492;2023-02-28T08:06:40;2.50;99.90
64689;DHT22;62504;46.070;14.492;2023-02-28T08:09:06;2.40;99.90
64689;DHT22;62504;46.070;14.492;2023-02-28T08:11:31;2.50;99.90
64689;DHT22;62504;46.070;14.492;2023-02-28T08:13:57;2.50;99.90
64689;DHT22;62504;46.070;14.492;2023-02-28T08:16:23;2.50;99.90
64689;DHT22;62504;46.070;14.492;2023-02-28T08:18:50;2.40;99.90
64689;DHT22;62504;46.070;14.492;2023-02-28T08:21:16;2.40;99.90
64689;DHT22;62504;46.070;14.492;2023-02-28T08:23:42;2.50;99.90
64689;DHT22;62504;46.070;14.492;2023-02-28T08:26:08;2.50;99.90
64689;DHT22;62504;46.070;14.492;2023-02-28T08:28:33;2.50;99.90
64689;DHT22;62504;46.070;14.492;2023-02-28T08:30:59;2.50;99.90
64689;DHT22;62504;46.070;14.492;2023-02-28T08:33:26;2.50;99.90
64689;DHT22;62504;46.070;14.492;2023-02-28T08:35:53;2.60;99.90
64689;DHT22;62504;46.070;14.492;2023-02-28T08:38:20;2.50;99.90
64689;DHT22;62504;46.070;14.492;2023-02-28T08:40:45;2.50;99.90
64689;DHT22;62504;46.070;14.492;2023-02-28T08:43:11;2.60;99.90
64689;DHT22;62504;46.070;14.492;2023-02-28T08:45:37;2.40;99.90
64689;DHT22;62504;46.070;14.492;2023-02-28T08:48:03;2.50;99.90
64689;DHT22;62504;46.070;14.492;2023-02-28T08:50:28;2.60;99.90
64689;DHT22;62504;46.070;14.492;2023-02-28T08:52:54;2.70;99.90
64689;DHT22;62504;46.070;14.492;2023-02-28T08:55:20;2.50;99.90
64689;DHT22;62504;46.070;14.492;2023-02-28T08:57:45;2.50;99.90
64689;DHT22;62504;46.070;14.492;2023-02-28T09:00:11;2.50;99.90
64689;DHT22;62504;46.070;14.492;2023-02-28T09:02:39;2.40;99.90
64689;DHT22;62504;46.070;14.492;2023-02-28T09:05:06;2.60;99.90
64689;DHT22;62504;46.070;14.492;2023-02-28T09:07:32;2.60;99.90
64689;DHT22;62504;46.070;14.492;2023-02-28T09:09:57;2.70;99.90
64689;DHT22;62504;46.070;14.492;2023-02-28T09:12:24;2.70;99.90
64689;DHT22;62504;46.070;14.492;2023-02-28T09:14:51;2.70;99.90
64689;DHT22;62504;46.070;14.492;2023-02-28T09:17:17;2.70;99.90
64689;DHT22;62504;46.070;14.492;2023-02-28T09:19:43;2.70;99.90
64689;DHT22;62504;46.070;14.492;2023-02-28T09:22:10;2.70;99.90
64689;DHT22;62504;46.070;14.492;2023-02-28T09:24:37;2.60;99.90
64689;DHT22;62504;46.070;14.492;2023-02-28T09:27:03;2.70;99.90
64689;DHT22;62504;46.070;14.492;2023-02-28T09:29:28;2.80;99.90
64689;DHT22;62504;46.070;14.492;2023-02-28T09:31:54;2.90;99.90
64689;DHT22;62504;46.070;14.492;2023-02-28T09:34:21;2.70;99.90
64689;DHT22;62504;46.070;14.492;2023-02-28T09:36:47;2.80;99.90
64689;DHT22;62504;46.070;14.492;2023-02-28T09:39:12;2.90;99.90
64689;DHT22;62504;46.070;14.492;2023-02-28T09:41:45;2.90;99.90
64689;DHT22;62504;46.070;14.492;2023-02-28T09:44:39;2.80;99.90
64689;DHT22;62504;46.070;14.492;2023-02-28T09:49:50;2.90;99.90
64689;DHT22;62504;46.070;14.492;2023-02-28T09:52:27;3.00;99.90
64689;DHT22;62504;46.070;14.492;2023-02-28T09:54:53;2.70;99.90
64689;DHT22;62504;46.070;14.492;2023-02-28T09:57:36;3.00;99.90
64689;DHT22;62504;46.070;14.492;2023-02-28T10:03:06;3.10;99.90
64689;DHT22;62504;46.070;14.492;2023-02-28T10:08:21;3.10;99.90
64689;DHT22;62504;46.070;14.492;2023-02-28T10:10:54;3.20;99.90
64689;DHT22;62504;46.070;14.492;2023-02-28T10:15:58;3.20;99.90
64689;DHT22;62504;46.070;14.492;2023-02-28T10:18:38;3.60;99.90
64689;DHT22;62504;46.070;14.492;2023-02-28T10:21:06;3.20;99.90
64689;DHT22;62504;46.070;14.492;2023-02-28T10:23:34;3.00;99.90
64689;DHT22;62504;46.070;14.492;2023-02-28T10:26:13;3.10;99.90
64689;DHT22;62504;46.070;14.492;2023-02-28T10:28:41;3.10;99.90
64689;DHT22;62504;46.070;14.492;2023-02-28T10:31:17;3.30;99.90
64689;DHT22;62504;46.070;14.492;2023-02-28T10:33:44;3.40;99.90
64689;DHT22;62504;46.070;14.492;2023-02-28T10:36:18;3.30;99.90
64689;DHT22;62504;46.070;14.492;2023-02-28T10:38:45;3.40;99.90
64689;DHT22;62504;46.070;14.492;2023-02-28T10:41:16;3.50;99.90
64689;DHT22;62504;46.070;14.492;2023-02-28T10:43:43;3.50;99.90
64689;DHT22;62504;46.070;14.492;2023-02-28T10:51:04;3.40;99.90
64689;DHT22;62504;46.070;14.492;2023-02-28T10:53:35;3.70;99.90
64689;DHT22;62504;46.070;14.492;2023-02-28T11:01:43;3.40;99.90
64689;DHT22;62504;46.070;14.492;2023-02-28T11:07:03;3.30;99.90
64689;DHT22;62504;46.070;14.492;2023-02-28T11:09:38;3.50;99.90
64689;DHT22;62504;46.070;14.492;2023-02-28T11:12:07;3.70;99.90
64689;DHT22;62504;46.070;14.492;2023-02-28T11:14:52;3.50;99.90
64689;DHT22;62504;46.070;14.492;2023-02-28T11:17:24;3.40;99.90
64689;DHT22;62504;46.070;14.492;2023-02-28T11:19:53;3.30;99.90
64689;DHT22;62504;46.070;14.492;2023-02-28T11:22:27;3.30;99.90
64689;DHT22;62504;46.070;14.492;2023-02-28T11:25:02;3.30;99.90
64689;DHT22;62504;46.070;14.492;2023-02-28T11:29:59;3.50;99.90
64689;DHT22;62504;46.070;14.492;2023-02-28T11:32:29;3.70;99.90
64689;DHT22;62504;46.070;14.492;2023-02-28T11:37:38;3.60;99.90
64689;DHT22;62504;46.070;14.492;2023-02-28T11:40:15;3.60;99.90
64689;DHT22;62504;46.070;14.492;2023-02-28T11:48:16;3.70;99.90
64689;DHT22;62504;46.070;14.492;2023-02-28T11:51:12;3.70;99.90
64689;DHT22;62504;46.070;14.492;2023-02-28T11:56:44;4.00;99.90
64689;DHT22;62504;46.070;14.492;2023-02-28T12:10:24;3.90;99.90
64689;DHT22;62504;46.070;14.492;2023-02-28T12:13:23;3.70;99.90
64689;DHT22;62504;46.070;14.492;2023-02-28T12:16:18;3.90;99.90
64689;DHT22;62504;46.070;14.492;2023-02-28T12:19:10;4.00;99.90
64689;DHT22;62504;46.070;14.492;2023-02-28T12:21:54;4.10;99.90
64689;DHT22;62504;46.070;14.492;2023-02-28T12:27:13;4.10;99.90
64689;DHT22;62504;46.070;14.492;2023-02-28T12:30:02;4.10;99.90
64689;DHT22;62504;46.070;14.492;2023-02-28T12:32:35;4.00;99.90
64689;DHT22;62504;46.070;14.492;2023-02-28T12:35:25;3.90;99.90
64689;DHT22;62504;46.070;14.492;2023-02-28T12:37:57;4.00;99.90
64689;DHT22;62504;46.070;14.492;2023-02-28T12:40:41;4.00;99.90
64689;DHT22;62504;46.070;14.492;2023-02-28T12:43:09;4.30;99.90
64689;DHT22;62504;46.070;14.492;2023-02-28T12:45:53;4.30;99.90
64689;DHT22;62504;46.070;14.492;2023-02-28T12:48:43;4.20;99.90
64689;DHT22;62504;46.070;14.492;2023-02-28T12:51:12;4.00;99.90
64689;DHT22;62504;46.070;14.492;2023-02-28T13:09:12;4.40;99.90
64689;DHT22;62504;46.070;14.492;2023-02-28T13:11:50;4.40;99.90
64689;DHT22;62504;46.070;14.492;2023-02-28T13:22:46;4.30;99.90
64689;DHT22;62504;46.070;14.492;2023-02-28T13:28:01;4.30;99.90
64689;DHT22;62504;46.070;14.492;2023-02-28T13:33:35;4.60;99.90
64689;DHT22;62504;46.070;14.492;2023-02-28T13:46:35;4.40;99.90
64689;DHT22;62504;46.070;14.492;2023-02-28T13:51:50;4.50;99.90
64689;DHT22;62504;46.070;14.492;2023-02-28T13:56:53;4.60;99.90
64689;DHT22;62504;46.070;14.492;2023-02-28T13:59:29;4.70;99.90
64689;DHT22;62504;46.070;14.492;2023-02-28T14:05:06;4.60;99.90
64689;DHT22;62504;46.070;14.492;2023-02-28T14:07:48;4.70;99.90
64689;DHT22;62504;46.070;14.492;2023-02-28T14:10:24;4.80;99.90
64689;DHT22;62504;46.070;14.492;2023-02-28T14:16:01;4.70;99.90
64689;DHT22;62504;46.070;14.492;2023-02-28T14:18:37;4.60;99.90
64689;DHT22;62504;46.070;14.492;2023-02-28T14:21:20;4.50;99.90
64689;DHT22;62504;46.070;14.492;2023-02-28T14:35:03;4.40;99.90
64689;DHT22;62504;46.070;14.492;2023-02-28T14:37:38;4.50;99.90
64689;DHT22;62504;46.070;14.492;2023-02-28T14:40:11;4.60;99.90
64689;DHT22;62504;46.070;14.492;2023-02-28T14:42:37;4.70;99.90
64689;DHT22;62504;46.070;14.492;2023-02-28T14:45:21;4.60;99.90
64689;DHT22;62504;46.070;14.492;2023-02-28T14:47:48;4.50;99.90
64689;DHT22;62504;46.070;14.492;2023-02-28T14:50:20;4.70;99.90
64689;DHT22;62504;46.070;14.492;2023-02-28T14:52:46;4.60;99.90
64689;DHT22;62504;46.070;14.492;2023-02-28T14:55:18;4.50;99.90
64689;DHT22;62504;46.070;14.492;2023-02-28T14:57:54;4.40;99.90
64689;DHT22;62504;46.070;14.492;2023-02-28T15:00:27;4.40;99.90
64689;DHT22;62504;46.070;14.492;2023-02-28T15:02:53;4.40;99.90
64689;DHT22;62504;46.070;14.492;2023-02-28T15:05:22;4.50;99.90
64689;DHT22;62504;46.070;14.492;2023-02-28T15:07:59;4.30;99.90
64689;DHT22;62504;46.070;14.492;2023-02-28T15:10:27;4.50;99.90
64689;DHT22;62504;46.070;14.492;2023-02-28T15:15:19;4.50;99.90
64689;DHT22;62504;46.070;14.492;2023-02-28T15:17:49;4.40;99.90
64689;DHT22;62504;46.070;14.492;2023-02-28T15:20:17;4.20;99.90
64689;DHT22;62504;46.070;14.492;2023-02-28T15:22:45;4.40;99.90
64689;DHT22;62504;46.070;14.492;2023-02-28T15:25:14;4.30;99.90
64689;DHT22;62504;46.070;14.492;2023-02-28T15:27:54;4.50;99.90
64689;DHT22;62504;46.070;14.492;2023-02-28T15:30:31;4.30;99.90
64689;DHT22;62504;46.070;14.492;2023-02-28T15:33:17;4.30;99.90
64689;DHT22;62504;46.070;14.492;2023-02-28T15:35:43;4.30;99.90
64689;DHT22;62504;46.070;14.492;2023-02-28T15:38:24;4.20;99.90
64689;DHT22;62504;46.070;14.492;2023-02-28T15:40:57;4.30;99.90
64689;DHT22;62504;46.070;14.492;2023-02-28T15:43:33;4.40;99.90
64689;DHT22;62504;46.070;14.492;2023-02-28T15:46:04;4.50;99.90
64689;DHT22;62504;46.070;14.492;2023-02-28T15:48:37;4.40;99.90
64689;DHT22;62504;46.070;14.492;2023-02-28T15:53:32;4.20;99.90
64689;DHT22;62504;46.070;14.492;2023-02-28T15:56:04;4.20;99.90
64689;DHT22;62504;46.070;14.492;2023-02-28T15:58:30;4.20;99.90
64689;DHT22;62504;46.070;14.492;2023-02-28T16:01:28;4.40;99.90
64689;DHT22;62504;46.070;14.492;2023-02-28T16:04:06;4.30;99.90
64689;DHT22;62504;46.070;14.492;2023-02-28T16:06:44;4.20;99.90
64689;DHT22;62504;46.070;14.492;2023-02-28T16:09:15;4.20;99.90
64689;DHT22;62504;46.070;14.492;2023-02-28T16:11:45;4.10;99.90
64689;DHT22;62504;46.070;14.492;2023-02-28T16:14:20;4.20;99.90
64689;DHT22;62504;46.070;14.492;2023-02-28T16:16:50;4.40;99.90
64689;DHT22;62504;46.070;14.492;2023-02-28T16:19:17;4.30;99.90
64689;DHT22;62504;46.070;14.492;2023-02-28T16:21:43;4.20;99.90
64689;DHT22;62504;46.070;14.492;2023-02-28T16:24:09;4.40;99.90
64689;DHT22;62504;46.070;14.492;2023-02-28T16:26:36;4.30;99.90
64689;DHT22;62504;46.070;14.492;2023-02-28T16:29:05;4.30;99.90
64689;DHT22;62504;46.070;14.492;2023-02-28T16:31:35;4.10;99.90
64689;DHT22;62504;46.070;14.492;2023-02-28T16:34:02;4.00;99.90
64689;DHT22;62504;46.070;14.492;2023-02-28T16:36:29;4.20;99.90
64689;DHT22;62504;46.070;14.492;2023-02-28T16:38:55;4.20;99.90
64689;DHT22;62504;46.070;14.492;2023-02-28T16:41:25;4.20;99.90
64689;DHT22;62504;46.070;14.492;2023-02-28T16:43:53;4.20;99.90
64689;DHT22;62504;46.070;14.492;2023-02-28T16:46:20;4.10;99.90
64689;DHT22;62504;46.070;14.492;2023-02-28T16:48:46;4.10;99.90
64689;DHT22;62504;46.070;14.492;2023-02-28T16:51:17;4.10;99.90
64689;DHT22;62504;46.070;14.492;2023-02-28T16:53:44;4.20;99.90
64689;DHT22;62504;46.070;14.492;2023-02-28T16:56:15;4.00;99.90
64689;DHT22;62504;46.070;14.492;2023-02-28T16:58:41;3.90;99.90
64689;DHT22;62504;46.070;14.492;2023-02-28T17:01:07;4.00;99.90
64689;DHT22;62504;46.070;14.492;2023-02-28T17:03:33;4.20;99.90
64689;DHT22;62504;46.070;14.492;2023-02-28T17:05:59;4.20;99.90
64689;DHT22;62504;46.070;14.492;2023-02-28T17:08:24;4.20;99.90
64689;DHT22;62504;46.070;14.492;2023-02-28T17:10:50;4.10;99.90
64689;DHT22;62504;46.070;14.492;2023-02-28T17:13:16;4.10;99.90
64689;DHT22;62504;46.070;14.492;2023-02-28T17:15:44;4.20;99.90
64689;DHT22;62504;46.070;14.492;2023-02-28T17:18:17;4.10;99.90
64689;DHT22;62504;46.070;14.492;2023-02-28T17:20:45;4.00;99.90
64689;DHT22;62504;46.070;14.492;2023-02-28T17:23:11;4.00;99.90
64689;DHT22;62504;46.070;14.492;2023-02-28T17:25:36;4.10;99.90
64689;DHT22;62504;46.070;14.492;2023-02-28T17:28:02;4.00;99.90
64689;DHT22;62504;46.070;14.492;2023-02-28T17:30:28;4.00;99.90
64689;DHT22;62504;46.070;14.492;2023-02-28T17:32:55;4.10;99.90
64689;DHT22;62504;46.070;14.492;2023-02-28T17:35:21;4.10;99.90
64689;DHT22;62504;46.070;14.492;2023-02-28T17:37:47;4.20;99.90
64689;DHT22;62504;46.070;14.492;2023-02-28T17:40:19;4.00;99.90
64689;DHT22;62504;46.070;14.492;2023-02-28T17:42:45;3.90;99.90
64689;DHT22;62504;46.070;14.492;2023-02-28T17:45:12;3.90;99.90
64689;DHT22;62504;46.070;14.492;2023-02-28T17:47:38;3.90;99.90
64689;DHT22;62504;46.070;14.492;2023-02-28T17:50:04;4.10;99.90
64689;DHT22;62504;46.070;14.492;2023-02-28T17:52:30;4.10;99.90
64689;DHT22;62504;46.070;14.492;2023-02-28T17:54:56;4.00;99.90
64689;DHT22;62504;46.070;14.492;2023-02-28T17:57:22;4.10;99.90
64689;DHT22;62504;46.070;14.492;2023-02-28T17:59:47;4.10;99.90
64689;DHT22;62504;46.070;14.492;2023-02-28T18:02:13;4.00;99.90
64689;DHT22;62504;46.070;14.492;2023-02-28T18:04:39;3.90;99.90
64689;DHT22;62504;46.070;14.492;2023-02-28T18:07:11;4.20;99.90
64689;DHT22;62504;46.070;14.492;2023-02-28T18:09:37;4.10;99.90
64689;DHT22;62504;46.070;14.492;2023-02-28T18:12:03;4.10;99.90
64689;DHT22;62504;46.070;14.492;2023-02-28T18:14:29;4.00;99.90
64689;DHT22;62504;46.070;14.492;2023-02-28T18:16:55;4.20;99.90
64689;DHT22;62504;46.070;14.492;2023-02-28T18:19:22;4.20;99.90
64689;DHT22;62504;46.070;14.492;2023-02-28T18:21:50;4.20;99.90
64689;DHT22;62504;46.070;14.492;2023-02-28T18:24:18;4.10;99.90